Time;durP1;ratioP1;P1;durP2;ratioP2;P2;SDS_P1;SDS_P2;PMS_P1;PMS_P2;Temp;Humidity;BMP_temperature;BMP_pressure;BME280_temperature;BME280_humidity;BME280_pressure;Samples;Min_cycle;Max_cycle;Signal;HPM_P1;HPM_P2
2022/09/19 00:01:10;;;;;;;10.77;3.10;;;;;;;;;;4947396;28;20047;-63
2022/09/19 00:03:38;;;;;;;8.85;3.30;;;;;;;;;;4950907;28;20045;-64
2022/09/19 00:06:05;;;;;;;6.45;3.00;;;;;;;;;;4949390;28;20051;-65
2022/09/19 00:08:31;;;;;;;10.77;3.25;;;;;;;;;;4948254;28;20260;-65
2022/09/19 00:11:01;;;;;;;9.77;3.13;;;;;;;;;;4951088;28;20106;-64
2022/09/19 00:13:27;;;;;;;11.05;3.33;;;;;;;;;;4949352;28;20051;-68
2022/09/19 00:15:53;;;;;;;8.30;3.20;;;;;;;;;;4945164;28;20079;-68
2022/09/19 00:18:19;;;;;;;8.00;3.10;;;;;;;;;;4953442;28;20055;-65
2022/09/19 00:20:47;;;;;;;7.20;3.33;;;;;;;;;;4950549;28;20062;-64
2022/09/19 00:26:03;;;;;;;;;;;;;;;;;;4945628;28;20051;-64
2022/09/19 00:28:29;;;;;;;13.10;3.22;;;;;;;;;;4946965;28;19930;-65
2022/09/19 00:30:56;;;;;;;6.03;3.15;;;;;;;;;;4947827;28;20105;-66
2022/09/19 00:33:27;;;;;;;9.45;3.10;;;;;;;;;;4948550;28;20509;-62
2022/09/19 00:35:57;;;;;;;12.05;3.33;;;;;;;;;;4950589;28;20059;-64
2022/09/19 00:38:24;;;;;;;8.25;2.95;;;;;;;;;;4948525;28;20055;-63
2022/09/19 00:40:51;;;;;;;7.82;3.30;;;;;;;;;;4947196;28;20118;-65
2022/09/19 00:43:18;;;;;;;5.93;2.85;;;;;;;;;;4947286;28;20063;-68
2022/09/19 00:45:45;;;;;;;7.72;3.38;;;;;;;;;;4946705;28;21627;-69
2022/09/19 00:48:16;;;;;;;8.02;3.00;;;;;;;;;;4946719;28;20106;-65
2022/09/19 00:50:46;;;;;;;9.27;3.03;;;;;;;;;;4949067;28;20039;-64
2022/09/19 00:53:17;;;;;;;9.35;3.10;;;;;;;;;;4946584;28;21212;-66
2022/09/19 00:55:43;;;;;;;9.40;3.22;;;;;;;;;;4947550;28;20421;-65
2022/09/19 00:58:29;;;;;;;9.52;3.40;;;;;;;;;;4949978;28;20044;-64
2022/09/19 01:00:57;;;;;;;7.45;2.90;;;;;;;;;;4944608;28;20434;-65
2022/09/19 01:03:25;;;;;;;6.30;3.10;;;;;;;;;;4949052;28;20082;-64
2022/09/19 01:06:24;;;;;;;8.70;3.30;;;;;;;;;;4946768;28;22074;-65
2022/09/19 01:09:25;;;;;;;8.50;3.42;;;;;;;;;;4946027;28;20058;-65
2022/09/19 01:11:57;;;;;;;7.10;3.13;;;;;;;;;;4953239;28;20799;-68
2022/09/19 01:14:51;;;;;;;7.78;3.40;;;;;;;;;;4953446;28;20055;-66
2022/09/19 01:17:25;;;;;;;8.40;3.17;;;;;;;;;;4947541;28;20445;-68
2022/09/19 01:20:18;;;;;;;5.70;3.05;;;;;;;;;;4946880;28;20520;-65
2022/09/19 01:23:25;;;;;;;8.00;3.15;;;;;;;;;;4947041;28;20108;-64
2022/09/19 01:26:03;;;;;;;7.60;3.20;;;;;;;;;;4948795;28;20059;-63
2022/09/19 01:28:47;;;;;;;11.20;3.20;;;;;;;;;;4948149;28;20466;-65
2022/09/19 01:31:26;;;;;;;7.85;3.13;;;;;;;;;;4957702;28;20039;-63
2022/09/19 01:34:02;;;;;;;8.00;3.53;;;;;;;;;;4953437;28;20134;-64
2022/09/19 01:36:39;;;;;;;7.10;3.08;;;;;;;;;;4952266;28;20043;-67
2022/09/19 01:39:08;;;;;;;7.03;3.10;;;;;;;;;;4947454;28;20051;-64
2022/09/19 01:41:35;;;;;;;6.25;3.28;;;;;;;;;;4956609;28;20450;-65
2022/09/19 01:44:05;;;;;;;10.43;3.55;;;;;;;;;;4953955;28;20043;-67
2022/09/19 01:46:56;;;;;;;9.10;3.03;;;;;;;;;;4951111;28;20143;-65
2022/09/19 01:49:25;;;;;;;9.13;2.70;;;;;;;;;;4951426;28;20047;-66
2022/09/19 01:52:02;;;;;;;10.23;2.83;;;;;;;;;;4946801;28;20043;-66
2022/09/19 01:54:31;;;;;;;10.88;3.55;;;;;;;;;;4949550;28;20138;-64
2022/09/19 01:57:23;;;;;;;8.48;2.97;;;;;;;;;;4954224;28;20070;-66
2022/09/19 02:00:15;;;;;;;7.72;3.28;;;;;;;;;;4957297;28;20097;-65
2022/09/19 02:03:16;;;;;;;9.32;3.33;;;;;;;;;;4948794;28;20134;-64
2022/09/19 02:05:55;;;;;;;5.35;2.53;;;;;;;;;;4949911;28;20065;-68
2022/09/19 02:08:32;;;;;;;9.43;2.90;;;;;;;;;;4946434;28;20043;-66
2022/09/19 02:11:04;;;;;;;11.45;2.97;;;;;;;;;;4948762;28;20097;-65
2022/09/19 02:13:33;;;;;;;8.27;3.33;;;;;;;;;;4966180;28;20141;-65
2022/09/19 02:16:07;;;;;;;5.63;2.42;;;;;;;;;;4950915;28;20051;-65
2022/09/19 02:18:44;;;;;;;9.60;3.25;;;;;;;;;;4948883;28;20047;-63
2022/09/19 02:21:18;;;;;;;9.23;3.38;;;;;;;;;;4949937;28;20062;-67
2022/09/19 02:23:50;;;;;;;6.30;2.92;;;;;;;;;;4950513;28;20047;-63
2022/09/19 02:26:20;;;;;;;4.88;2.75;;;;;;;;;;4949229;28;20067;-64
2022/09/19 02:28:54;;;;;;;9.32;3.00;;;;;;;;;;4951359;28;20051;-65
2022/09/19 02:31:26;;;;;;;5.63;2.67;;;;;;;;;;4952217;28;20043;-64
2022/09/19 02:33:55;;;;;;;9.07;3.30;;;;;;;;;;4950962;28;20102;-64
2022/09/19 02:36:33;;;;;;;6.75;2.80;;;;;;;;;;4949205;28;20494;-65
2022/09/19 02:39:11;;;;;;;9.35;2.80;;;;;;;;;;4987258;28;20067;-66
2022/09/19 02:41:49;;;;;;;10.07;3.25;;;;;;;;;;4957319;28;20061;-63
2022/09/19 02:44:24;;;;;;;6.70;2.88;;;;;;;;;;4958056;28;20142;-64
2022/09/19 02:47:16;;;;;;;5.80;2.60;;;;;;;;;;4952646;28;20207;-66
2022/09/19 02:49:57;;;;;;;5.53;2.95;;;;;;;;;;4954062;28;20497;-65
2022/09/19 02:52:32;;;;;;;7.93;2.72;;;;;;;;;;4948602;28;20134;-67
2022/09/19 02:55:09;;;;;;;8.85;2.55;;;;;;;;;;4953731;28;20059;-63
2022/09/19 02:57:36;;;;;;;8.35;2.78;;;;;;;;;;4960374;28;20075;-64
2022/09/19 03:00:05;;;;;;;5.75;2.58;;;;;;;;;;4952298;28;20054;-66
2022/09/19 03:02:37;;;;;;;5.25;2.50;;;;;;;;;;4952742;28;20055;-64
2022/09/19 03:05:09;;;;;;;13.55;3.92;;;;;;;;;;4951389;28;20058;-64
2022/09/19 03:08:03;;;;;;;7.45;2.53;;;;;;;;;;4954192;28;20082;-64
2022/09/19 03:10:38;;;;;;;9.10;2.85;;;;;;;;;;4946366;28;20051;-65
2022/09/19 03:13:10;;;;;;;6.13;2.45;;;;;;;;;;4952319;28;20075;-64
2022/09/19 03:15:49;;;;;;;6.53;2.60;;;;;;;;;;4952697;28;20051;-64
2022/09/19 03:18:17;;;;;;;5.57;2.55;;;;;;;;;;4952846;28;20043;-65
2022/09/19 03:20:51;;;;;;;7.93;2.78;;;;;;;;;;4952255;28;20063;-64
2022/09/19 03:23:23;;;;;;;7.85;2.70;;;;;;;;;;4945410;28;20142;-63
2022/09/19 03:25:49;;;;;;;5.93;2.55;;;;;;;;;;4951352;28;20051;-64
2022/09/19 03:28:19;;;;;;;8.50;2.67;;;;;;;;;;4949571;28;20500;-64
2022/09/19 03:30:46;;;;;;;9.90;2.67;;;;;;;;;;4955457;28;20077;-64
2022/09/19 03:33:15;;;;;;;7.82;2.55;;;;;;;;;;4950289;28;20422;-64
2022/09/19 03:35:46;;;;;;;6.72;2.58;;;;;;;;;;4955378;28;20039;-65
2022/09/19 03:38:12;;;;;;;6.85;2.80;;;;;;;;;;4952067;28;20092;-64
2022/09/19 03:40:38;;;;;;;6.90;2.97;;;;;;;;;;4951095;28;20515;-64
2022/09/19 03:43:05;;;;;;;5.78;2.80;;;;;;;;;;4949748;28;20065;-64
2022/09/19 03:45:30;;;;;;;7.65;2.92;;;;;;;;;;4950497;28;20105;-65
2022/09/19 03:47:56;;;;;;;8.15;2.53;;;;;;;;;;4949588;28;20051;-67
2022/09/19 03:50:23;;;;;;;8.13;2.40;;;;;;;;;;4951191;28;20043;-64
2022/09/19 03:52:49;;;;;;;6.75;2.63;;;;;;;;;;4946527;28;20054;-64
2022/09/19 03:55:16;;;;;;;6.75;2.70;;;;;;;;;;4950556;28;20047;-65
2022/09/19 03:57:41;;;;;;;6.45;2.38;;;;;;;;;;4951405;28;20082;-65
2022/09/19 04:00:08;;;;;;;8.07;2.78;;;;;;;;;;4949066;28;20090;-70
2022/09/19 04:02:34;;;;;;;7.35;2.58;;;;;;;;;;4947935;28;20085;-64
2022/09/19 04:05:02;;;;;;;4.82;2.30;;;;;;;;;;4949117;28;20039;-64
2022/09/19 04:07:28;;;;;;;5.95;2.60;;;;;;;;;;4946148;28;20074;-65
2022/09/19 04:09:54;;;;;;;5.53;2.60;;;;;;;;;;4948026;28;20258;-67
2022/09/19 04:12:21;;;;;;;8.88;2.50;;;;;;;;;;4955121;28;20051;-63
2022/09/19 04:14:48;;;;;;;16.95;2.88;;;;;;;;;;4950257;28;20054;-65
2022/09/19 04:17:15;;;;;;;7.22;2.58;;;;;;;;;;4948260;28;20055;-64
2022/09/19 04:19:44;;;;;;;7.45;2.75;;;;;;;;;;4950238;28;20040;-64
2022/09/19 04:22:10;;;;;;;7.35;2.95;;;;;;;;;;4956276;28;20074;-66
2022/09/19 04:24:42;;;;;;;5.57;2.50;;;;;;;;;;4948359;28;20039;-65
2022/09/19 04:27:12;;;;;;;9.05;2.75;;;;;;;;;;4956324;28;20055;-68
2022/09/19 04:29:38;;;;;;;8.75;2.50;;;;;;;;;;4947920;28;20043;-64
2022/09/19 04:32:04;;;;;;;8.38;2.80;;;;;;;;;;4949956;28;20390;-64
2022/09/19 04:34:30;;;;;;;8.48;2.92;;;;;;;;;;4950104;28;20056;-64
2022/09/19 04:36:57;;;;;;;6.70;2.85;;;;;;;;;;4947566;28;20058;-67
2022/09/19 04:39:24;;;;;;;9.02;2.70;;;;;;;;;;4949932;28;20047;-64
2022/09/19 04:41:52;;;;;;;8.90;2.53;;;;;;;;;;4951415;28;20339;-68
2022/09/19 04:44:20;;;;;;;8.98;3.17;;;;;;;;;;4946864;28;20069;-64
2022/09/19 04:46:47;;;;;;;7.68;2.70;;;;;;;;;;4948820;28;20102;-64
2022/09/19 04:49:14;;;;;;;16.90;2.88;;;;;;;;;;4948744;28;20043;-68
2022/09/19 04:51:40;;;;;;;10.13;3.35;;;;;;;;;;4951158;28;20047;-69
2022/09/19 04:54:05;;;;;;;6.55;2.60;;;;;;;;;;4955692;28;20090;-69
2022/09/19 04:56:32;;;;;;;7.80;2.88;;;;;;;;;;4952235;28;20050;-65
2022/09/19 04:59:02;;;;;;;8.02;2.92;;;;;;;;;;4950309;28;20055;-68
2022/09/19 05:01:30;;;;;;;7.32;2.92;;;;;;;;;;4947545;28;20055;-68
2022/09/19 05:03:57;;;;;;;4.30;2.65;;;;;;;;;;4946568;28;20059;-65
2022/09/19 05:06:27;;;;;;;7.30;2.70;;;;;;;;;;4950537;28;21128;-64
2022/09/19 05:08:53;;;;;;;9.10;2.50;;;;;;;;;;4948778;28;20546;-67
2022/09/19 05:11:21;;;;;;;6.30;2.50;;;;;;;;;;4947713;28;20105;-62
2022/09/19 05:13:49;;;;;;;6.10;2.40;;;;;;;;;;4946301;28;20059;-66
2022/09/19 05:16:16;;;;;;;8.63;3.05;;;;;;;;;;4946003;28;20541;-66
2022/09/19 05:18:42;;;;;;;7.50;2.97;;;;;;;;;;4945106;28;20178;-67
2022/09/19 05:21:14;;;;;;;11.40;3.10;;;;;;;;;;4948673;28;20055;-65
2022/09/19 05:23:41;;;;;;;8.98;3.20;;;;;;;;;;4948711;28;20039;-67
2022/09/19 05:26:15;;;;;;;5.63;2.70;;;;;;;;;;4943707;28;20055;-69
2022/09/19 05:28:41;;;;;;;;;;;;;;;;;;4948091;28;20453;-68
2022/09/19 05:31:07;;;;;;;11.48;3.42;;;;;;;;;;4944819;28;19946;-67
2022/09/19 05:33:34;;;;;;;9.73;3.00;;;;;;;;;;4944085;28;20053;-66
2022/09/19 05:36:01;;;;;;;12.10;3.60;;;;;;;;;;4939254;28;20162;-66
2022/09/19 05:38:28;;;;;;;10.10;3.65;;;;;;;;;;4960372;28;20059;-67
2022/09/19 05:40:55;;;;;;;8.77;3.78;;;;;;;;;;4954346;28;20381;-66
2022/09/19 05:43:21;;;;;;;8.82;3.20;;;;;;;;;;4953583;28;20047;-64
2022/09/19 05:45:50;;;;;;;7.95;2.95;;;;;;;;;;4950201;28;20386;-65
2022/09/19 05:48:16;;;;;;;6.93;2.78;;;;;;;;;;4965349;28;20047;-66
2022/09/19 05:50:43;;;;;;;11.48;3.40;;;;;;;;;;4966656;28;20130;-68
2022/09/19 05:55:58;;;;;;;7.13;3.72;;;;;;;;;;4949905;28;20062;-65
2022/09/19 05:58:25;;;;;;;13.02;3.88;;;;;;;;;;4949538;28;20066;-66
2022/09/19 06:00:51;;;;;;;11.30;3.30;;;;;;;;;;4947799;28;20485;-68
2022/09/19 06:03:20;;;;;;;11.90;3.25;;;;;;;;;;4950160;28;20043;-69
2022/09/19 06:05:48;;;;;;;11.40;3.10;;;;;;;;;;4953326;28;20070;-66
2022/09/19 06:08:19;;;;;;;8.48;3.08;;;;;;;;;;4961300;28;20396;-69
2022/09/19 06:10:47;;;;;;;8.82;3.10;;;;;;;;;;4948690;28;20400;-66
2022/09/19 06:13:16;;;;;;;9.98;3.25;;;;;;;;;;4968273;28;20090;-65
2022/09/19 06:15:41;;;;;;;10.23;3.00;;;;;;;;;;4949852;28;20051;-64
2022/09/19 06:18:11;;;;;;;8.75;3.53;;;;;;;;;;4953808;28;20142;-69
2022/09/19 06:20:38;;;;;;;7.55;3.38;;;;;;;;;;4952191;28;20043;-68
2022/09/19 06:23:06;;;;;;;10.63;3.80;;;;;;;;;;4948234;28;20067;-68
2022/09/19 06:25:33;;;;;;;9.52;3.65;;;;;;;;;;4947530;28;20051;-66
2022/09/19 06:28:02;;;;;;;7.18;3.25;;;;;;;;;;4959434;28;20051;-66
2022/09/19 06:30:28;;;;;;;9.65;3.13;;;;;;;;;;4961774;28;20051;-66
2022/09/19 06:32:54;;;;;;;12.38;3.50;;;;;;;;;;4948480;28;20490;-70
2022/09/19 06:35:22;;;;;;;9.32;3.30;;;;;;;;;;4949051;28;21404;-65
2022/09/19 06:37:48;;;;;;;12.63;3.20;;;;;;;;;;4941522;28;20063;-67
2022/09/19 06:40:18;;;;;;;10.38;3.63;;;;;;;;;;4951364;28;20109;-67
2022/09/19 06:42:44;;;;;;;10.05;3.53;;;;;;;;;;4939863;28;20055;-71
2022/09/19 06:45:10;;;;;;;11.00;3.67;;;;;;;;;;4950269;28;20586;-65
2022/09/19 06:47:37;;;;;;;10.13;4.40;;;;;;;;;;4954965;28;20078;-65
2022/09/19 06:50:04;;;;;;;21.75;9.00;;;;;;;;;;4948546;28;20082;-64
2022/09/19 06:52:31;;;;;;;29.55;11.05;;;;;;;;;;4949741;28;20423;-65
2022/09/19 06:54:58;;;;;;;24.95;9.07;;;;;;;;;;4950403;28;20047;-68
2022/09/19 06:57:24;;;;;;;16.60;6.95;;;;;;;;;;4965026;28;20046;-66
2022/09/19 06:59:50;;;;;;;18.13;5.72;;;;;;;;;;4957974;28;20129;-66
2022/09/19 07:02:16;;;;;;;21.63;6.57;;;;;;;;;;4952712;28;20533;-64
2022/09/19 07:04:42;;;;;;;19.08;6.63;;;;;;;;;;4955346;28;20050;-66
2022/09/19 07:07:08;;;;;;;15.48;6.50;;;;;;;;;;4970325;28;20149;-68
2022/09/19 07:09:33;;;;;;;17.27;6.30;;;;;;;;;;4948454;28;20051;-67
2022/09/19 07:12:01;;;;;;;14.30;6.22;;;;;;;;;;4950511;28;20043;-67
2022/09/19 07:14:27;;;;;;;15.88;6.25;;;;;;;;;;4962244;28;20464;-66
2022/09/19 07:16:53;;;;;;;19.08;6.10;;;;;;;;;;4950144;28;20051;-66
2022/09/19 07:19:19;;;;;;;13.32;5.20;;;;;;;;;;4952752;28;20430;-65
2022/09/19 07:21:45;;;;;;;13.90;5.57;;;;;;;;;;4947133;28;20138;-63
2022/09/19 07:24:10;;;;;;;17.65;6.47;;;;;;;;;;4949509;28;20055;-64
2022/09/19 07:26:36;;;;;;;12.70;5.35;;;;;;;;;;4951406;28;20398;-67
2022/09/19 07:29:02;;;;;;;15.90;4.70;;;;;;;;;;4949460;28;20538;-66
2022/09/19 07:31:28;;;;;;;13.65;4.20;;;;;;;;;;4952599;28;20596;-64
2022/09/19 07:33:54;;;;;;;11.18;4.35;;;;;;;;;;4948994;28;20043;-66
2022/09/19 07:36:21;;;;;;;11.02;4.20;;;;;;;;;;4951383;28;20063;-68
2022/09/19 07:38:51;;;;;;;10.15;3.67;;;;;;;;;;4949509;28;20476;-65
2022/09/19 07:41:17;;;;;;;13.88;3.92;;;;;;;;;;4948933;28;20048;-71
2022/09/19 07:43:44;;;;;;;14.50;4.22;;;;;;;;;;4948038;28;20501;-65
2022/09/19 07:46:14;;;;;;;8.75;3.80;;;;;;;;;;4947849;28;20047;-66
2022/09/19 07:48:42;;;;;;;7.00;3.47;;;;;;;;;;4948845;28;20054;-65
2022/09/19 07:51:08;;;;;;;10.13;3.40;;;;;;;;;;4950814;28;20128;-66
2022/09/19 07:53:34;;;;;;;7.13;3.50;;;;;;;;;;4946507;28;20683;-64
2022/09/19 07:56:01;;;;;;;12.23;3.53;;;;;;;;;;4942725;28;20071;-64
2022/09/19 07:58:27;;;;;;;13.27;3.30;;;;;;;;;;4947884;28;20101;-65
2022/09/19 08:00:54;;;;;;;11.00;3.40;;;;;;;;;;4947328;28;20505;-69
2022/09/19 08:03:20;;;;;;;16.02;3.72;;;;;;;;;;4945287;28;20062;-66
2022/09/19 08:05:51;;;;;;;10.85;3.72;;;;;;;;;;4943473;28;20420;-67
2022/09/19 08:08:19;;;;;;;9.27;3.65;;;;;;;;;;4940224;28;20054;-64
2022/09/19 08:10:45;;;;;;;13.10;4.30;;;;;;;;;;4948179;28;20070;-66
2022/09/19 08:13:13;;;;;;;12.75;4.00;;;;;;;;;;4949652;28;20497;-64
2022/09/19 08:15:40;;;;;;;13.27;4.05;;;;;;;;;;4945255;28;20078;-63
2022/09/19 08:18:15;;;;;;;21.40;5.47;;;;;;;;;;4960303;28;20138;-68
2022/09/19 08:20:41;;;;;;;11.68;4.50;;;;;;;;;;4937743;28;20497;-66
2022/09/19 08:23:10;;;;;;;10.80;3.63;;;;;;;;;;4949313;28;20192;-68
2022/09/19 08:25:38;;;;;;;11.95;3.80;;;;;;;;;;4949180;28;20501;-69
2022/09/19 08:28:04;;;;;;;15.48;3.75;;;;;;;;;;4961863;28;20047;-63
2022/09/19 08:30:33;;;;;;;11.93;3.60;;;;;;;;;;4948614;28;20051;-65
2022/09/19 08:33:01;;;;;;;10.93;3.40;;;;;;;;;;4948877;28;20047;-67
2022/09/19 08:35:29;;;;;;;10.70;3.35;;;;;;;;;;4948012;28;20051;-67
2022/09/19 08:37:59;;;;;;;6.82;3.28;;;;;;;;;;4946709;28;20047;-68
2022/09/19 08:40:28;;;;;;;8.88;3.10;;;;;;;;;;4948344;28;20106;-68
2022/09/19 08:42:54;;;;;;;11.73;3.83;;;;;;;;;;4942701;28;20059;-67
2022/09/19 08:45:44;;;;;;;8.35;3.08;;;;;;;;;;4941380;28;20043;-69
2022/09/19 08:48:24;;;;;;;8.45;2.97;;;;;;;;;;4947203;28;20452;-63
2022/09/19 08:51:35;;;;;;;9.10;3.20;;;;;;;;;;4940653;28;20055;-67
2022/09/19 08:54:32;;;;;;;10.65;3.55;;;;;;;;;;4920359;29;20059;-67
2022/09/19 08:56:59;;;;;;;8.38;3.08;;;;;;;;;;4921391;29;20062;-66
2022/09/19 08:59:32;;;;;;;8.05;3.10;;;;;;;;;;4912418;29;20411;-63
2022/09/19 09:02:07;;;;;;;8.85;3.00;;;;;;;;;;4914511;29;20094;-64
2022/09/19 09:04:35;;;;;;;6.32;2.97;;;;;;;;;;4919520;29;20457;-66
2022/09/19 09:07:18;;;;;;;9.40;2.97;;;;;;;;;;4922877;29;20055;-68
2022/09/19 09:10:10;;;;;;;8.02;2.80;;;;;;;;;;4926449;29;20062;-68
2022/09/19 09:13:17;;;;;;;10.05;2.88;;;;;;;;;;4924009;29;20092;-67
2022/09/19 09:15:49;;;;;;;8.05;2.47;;;;;;;;;;4914575;29;20056;-64
2022/09/19 09:18:44;;;;;;;6.88;3.20;;;;;;;;;;4924491;29;20051;-65
2022/09/19 09:21:16;;;;;;;10.63;2.80;;;;;;;;;;4923787;29;20051;-71
2022/09/19 09:23:47;;;;;;;9.60;3.13;;;;;;;;;;4921057;29;20082;-62
2022/09/19 09:26:28;;;;;;;6.38;2.80;;;;;;;;;;4942184;28;20055;-66
2022/09/19 09:29:15;;;;;;;7.57;3.08;;;;;;;;;;4943288;28;20051;-66
2022/09/19 09:31:50;;;;;;;6.82;2.97;;;;;;;;;;4949582;28;20050;-66
2022/09/19 09:34:28;;;;;;;6.00;2.92;;;;;;;;;;4938079;28;20054;-66
2022/09/19 09:37:05;;;;;;;12.68;3.13;;;;;;;;;;4943583;28;20055;-67
2022/09/19 09:39:49;;;;;;;23.25;2.92;;;;;;;;;;4938456;28;20163;-64
2022/09/19 09:42:25;;;;;;;6.88;2.30;;;;;;;;;;4945069;28;20070;-67
2022/09/19 09:44:59;;;;;;;4.72;2.20;;;;;;;;;;4945605;28;20412;-65
2022/09/19 09:47:44;;;;;;;6.18;2.42;;;;;;;;;;4958077;28;20059;-69
2022/09/19 09:50:25;;;;;;;10.93;3.22;;;;;;;;;;4937150;29;20512;-68
2022/09/19 09:53:08;;;;;;;5.07;2.95;;;;;;;;;;4942177;28;20051;-64
2022/09/19 09:58:55;;;;;;;8.32;2.75;;;;;;;;;;4936074;28;20058;-64
2022/09/19 10:04:34;;;;;;;8.88;2.45;;;;;;;;;;4936667;28;20048;-63
2022/09/19 10:07:03;;;;;;;6.68;2.70;;;;;;;;;;4938826;28;20141;-70
2022/09/19 10:09:34;;;;;;;8.25;2.05;;;;;;;;;;4940886;28;20051;-67
2022/09/19 10:12:18;;;;;;;6.35;2.38;;;;;;;;;;4941011;28;20113;-65
2022/09/19 10:14:46;;;;;;;6.40;2.42;;;;;;;;;;4943513;28;20048;-69
2022/09/19 10:17:19;;;;;;;5.53;2.38;;;;;;;;;;4947043;28;20060;-70
2022/09/19 10:19:50;;;;;;;8.90;2.58;;;;;;;;;;4953005;28;20067;-65
2022/09/19 10:22:17;;;;;;;5.10;2.47;;;;;;;;;;4938854;28;20063;-63
2022/09/19 10:24:47;;;;;;;7.30;2.35;;;;;;;;;;4947679;28;20047;-69
2022/09/19 10:27:23;;;;;;;5.68;2.80;;;;;;;;;;4945969;28;20250;-67
2022/09/19 10:30:10;;;;;;;5.60;2.35;;;;;;;;;;4947568;28;20059;-63
2022/09/19 10:32:38;;;;;;;4.75;2.28;;;;;;;;;;4946327;28;20083;-64
2022/09/19 10:35:26;;;;;;;5.03;2.40;;;;;;;;;;4954746;28;20097;-65
2022/09/19 10:38:05;;;;;;;5.60;2.40;;;;;;;;;;4941941;28;20788;-64
2022/09/19 10:40:32;;;;;;;8.43;2.83;;;;;;;;;;4943589;28;20047;-64
2022/09/19 10:43:01;;;;;;;7.30;2.72;;;;;;;;;;4948314;28;20055;-67
2022/09/19 10:45:30;;;;;;;9.05;2.80;;;;;;;;;;4959023;28;20113;-63
2022/09/19 10:48:05;;;;;;;8.88;2.70;;;;;;;;;;4948724;28;20059;-68
2022/09/19 10:50:31;;;;;;;9.70;2.40;;;;;;;;;;4949512;28;20043;-63
2022/09/19 10:53:05;;;;;;;6.88;2.40;;;;;;;;;;4948911;28;20055;-64
2022/09/19 10:55:36;;;;;;;8.47;2.50;;;;;;;;;;4948901;28;20130;-70
2022/09/19 10:58:06;;;;;;;9.93;2.97;;;;;;;;;;4953609;28;20297;-68
2022/09/19 11:01:02;;;;;;;5.72;2.50;;;;;;;;;;4958551;28;20054;-68
2022/09/19 11:03:32;;;;;;;5.47;2.30;;;;;;;;;;4948391;28;20134;-63
2022/09/19 11:06:28;;;;;;;8.85;3.17;;;;;;;;;;4942826;28;20063;-70
2022/09/19 11:08:55;;;;;;;4.32;2.15;;;;;;;;;;4947805;28;20055;-64
2022/09/19 11:11:48;;;;;;;8.40;3.20;;;;;;;;;;4950891;28;20043;-64
2022/09/19 11:14:21;;;;;;;5.68;2.20;;;;;;;;;;4947972;28;20164;-68
2022/09/19 11:17:08;;;;;;;9.32;2.45;;;;;;;;;;4950433;28;20051;-67
2022/09/19 11:19:53;;;;;;;4.20;2.00;;;;;;;;;;4948474;28;20055;-66
2022/09/19 11:22:31;;;;;;;8.70;2.60;;;;;;;;;;4945476;28;20074;-67
2022/09/19 11:25:16;;;;;;;8.38;2.70;;;;;;;;;;4945497;28;20054;-65
2022/09/19 11:27:50;;;;;;;;;;;;;;;;;;4946756;28;20082;-69
2022/09/19 11:30:20;;;;;;;;;;;;;;;;;;4945983;28;20633;-65
2022/09/19 11:33:19;;;;;;;8.07;3.00;;;;;;;;;;4940563;28;21003;-63
2022/09/19 11:36:07;;;;;;;6.22;2.70;;;;;;;;;;4947878;28;20099;-66
2022/09/19 11:39:03;;;;;;;5.75;2.53;;;;;;;;;;4941335;28;20047;-67
2022/09/19 11:41:31;;;;;;;11.32;2.97;;;;;;;;;;4948028;28;20055;-64
2022/09/19 11:44:33;;;;;;;8.80;3.72;;;;;;;;;;4946287;28;20047;-69
2022/09/19 11:47:34;;;;;;;13.82;4.80;;;;;;;;;;4945680;28;20085;-67
2022/09/19 11:50:25;;;;;;;31.67;12.00;;;;;;;;;;4953763;28;20073;-66
2022/09/19 11:53:18;;;;;;;20.83;6.68;;;;;;;;;;4946754;28;20106;-66
2022/09/19 11:56:11;;;;;;;25.75;10.23;;;;;;;;;;4944984;28;20051;-65
2022/09/19 11:59:21;;;;;;;17.30;6.25;;;;;;;;;;4949794;28;20480;-65
2022/09/19 12:02:20;;;;;;;15.57;5.13;;;;;;;;;;4946335;28;20062;-67
2022/09/19 12:05:05;;;;;;;11.80;4.10;;;;;;;;;;4950427;28;20101;-64
2022/09/19 12:07:42;;;;;;;7.15;3.42;;;;;;;;;;4954449;28;20047;-69
2022/09/19 12:10:18;;;;;;;5.85;2.67;;;;;;;;;;4953730;28;20300;-65
2022/09/19 12:12:56;;;;;;;8.48;3.42;;;;;;;;;;4947293;28;20068;-63
2022/09/19 12:15:27;;;;;;;9.30;3.35;;;;;;;;;;4945898;28;20062;-69
2022/09/19 12:18:12;;;;;;;6.50;2.85;;;;;;;;;;4947594;28;20059;-64
2022/09/19 12:20:45;;;;;;;7.63;2.97;;;;;;;;;;4953471;28;20337;-66
2022/09/19 12:26:12;;;;;;;5.55;2.50;;;;;;;;;;4951483;28;20043;-70
2022/09/19 12:28:50;;;;;;;8.05;2.80;;;;;;;;;;4946714;28;20046;-68
2022/09/19 12:31:20;;;;;;;14.38;3.10;;;;;;;;;;4975625;28;20073;-67
2022/09/19 12:33:55;;;;;;;5.55;2.40;;;;;;;;;;4952069;28;20449;-69
2022/09/19 12:36:30;;;;;;;11.00;3.40;;;;;;;;;;4950799;28;20047;-68
2022/09/19 12:39:07;;;;;;;8.77;3.28;;;;;;;;;;4953607;28;20055;-64
2022/09/19 12:41:42;;;;;;;6.00;2.60;;;;;;;;;;4951627;28;20094;-64
2022/09/19 12:44:28;;;;;;;5.93;2.35;;;;;;;;;;4944449;28;20054;-66
2022/09/19 12:47:01;;;;;;;8.73;2.95;;;;;;;;;;4958191;28;20126;-66
2022/09/19 12:49:40;;;;;;;10.57;3.28;;;;;;;;;;4954015;28;20098;-64
2022/09/19 12:52:09;;;;;;;7.05;2.45;;;;;;;;;;4938240;28;20527;-65
2022/09/19 12:54:51;;;;;;;9.48;3.95;;;;;;;;;;4954829;28;20492;-63
2022/09/19 12:57:31;;;;;;;6.70;2.00;;;;;;;;;;4947845;28;20122;-66
2022/09/19 12:59:57;;;;;;;12.73;2.60;;;;;;;;;;4947647;28;20580;-65
2022/09/19 13:02:43;;;;;;;5.93;1.90;;;;;;;;;;4942805;28;20342;-69
2022/09/19 13:05:29;;;;;;;8.80;2.03;;;;;;;;;;4946184;28;20058;-67
2022/09/19 13:08:00;;;;;;;4.95;1.90;;;;;;;;;;4942358;28;20091;-66
2022/09/19 13:10:36;;;;;;;3.25;1.73;;;;;;;;;;4947077;28;20082;-64
2022/09/19 13:13:19;;;;;;;4.60;1.80;;;;;;;;;;4939553;28;20043;-66
2022/09/19 13:15:51;;;;;;;2.63;1.52;;;;;;;;;;4946118;28;20039;-66
2022/09/19 13:23:58;;;;;;;3.28;1.52;;;;;;;;;;4937700;28;20044;-64
2022/09/19 13:26:35;;;;;;;3.50;1.73;;;;;;;;;;4944079;28;20057;-66
2022/09/19 13:29:26;;;;;;;5.32;1.90;;;;;;;;;;4944531;28;20056;-63
2022/09/19 13:31:55;;;;;;;3.75;1.63;;;;;;;;;;4939202;28;20409;-64
2022/09/19 13:34:33;;;;;;;4.88;1.80;;;;;;;;;;4948830;28;20050;-64
2022/09/19 13:37:19;;;;;;;3.13;1.63;;;;;;;;;;4939265;28;20054;-67
2022/09/19 13:40:23;;;;;;;4.43;1.70;;;;;;;;;;4948750;28;20063;-62
2022/09/19 13:43:13;;;;;;;3.85;1.65;;;;;;;;;;4941987;28;20059;-66
2022/09/19 13:45:45;;;;;;;2.95;1.70;;;;;;;;;;4940655;28;20116;-64
2022/09/19 13:48:46;;;;;;;5.40;2.10;;;;;;;;;;4945738;28;20075;-64
2022/09/19 13:51:35;;;;;;;13.45;6.50;;;;;;;;;;4949250;28;20059;-64
2022/09/19 13:54:29;;;;;;;24.23;8.90;;;;;;;;;;4947068;28;20051;-65
2022/09/19 13:57:01;;;;;;;;;;;;;;;;;;4942582;28;20581;-68
2022/09/19 13:59:35;;;;;;;17.73;6.63;;;;;;;;;;4964858;28;19926;-64
2022/09/19 14:02:16;;;;;;;9.15;3.05;;;;;;;;;;4954080;28;20048;-67
2022/09/19 14:05:06;;;;;;;10.65;4.28;;;;;;;;;;4954335;28;20082;-64
2022/09/19 14:07:53;;;;;;;9.93;4.57;;;;;;;;;;4959434;28;20085;-64
2022/09/19 14:10:38;;;;;;;7.57;2.42;;;;;;;;;;4954748;28;20051;-63
2022/09/19 14:13:24;;;;;;;8.43;2.83;;;;;;;;;;4946144;28;20453;-64
2022/09/19 14:16:08;;;;;;;4.88;1.95;;;;;;;;;;4946271;28;20055;-71
2022/09/19 14:18:36;;;;;;;6.47;2.47;;;;;;;;;;4947690;28;20047;-63
2022/09/19 14:21:05;;;;;;;6.07;2.08;;;;;;;;;;4963882;28;20047;-65
2022/09/19 14:23:34;;;;;;;5.63;2.00;;;;;;;;;;4949098;28;20386;-66
2022/09/19 14:26:01;;;;;;;6.65;1.85;;;;;;;;;;4951237;28;20051;-66
2022/09/19 14:28:46;;;;;;;4.45;2.10;;;;;;;;;;4947195;28;20047;-68
2022/09/19 14:31:34;;;;;;;3.63;1.63;;;;;;;;;;4948631;28;20059;-66
2022/09/19 14:34:37;;;;;;;5.43;1.80;;;;;;;;;;4947036;28;20461;-66
2022/09/19 14:37:22;;;;;;;4.63;1.50;;;;;;;;;;4951928;28;20066;-63
2022/09/19 14:40:09;;;;;;;3.78;1.80;;;;;;;;;;4951102;28;20498;-65
2022/09/19 14:42:38;;;;;;;4.00;1.80;;;;;;;;;;4941827;28;20058;-62
2022/09/19 14:45:23;;;;;;;5.35;2.20;;;;;;;;;;4950635;28;20051;-69
2022/09/19 14:47:56;;;;;;;6.82;1.80;;;;;;;;;;4951012;28;20086;-62
2022/09/19 14:50:25;;;;;;;7.50;1.97;;;;;;;;;;4949065;28;20721;-64
2022/09/19 14:53:04;;;;;;;5.20;1.90;;;;;;;;;;4948510;28;20308;-62
2022/09/19 14:55:49;;;;;;;4.50;1.75;;;;;;;;;;4948032;28;20044;-64
2022/09/19 14:58:33;;;;;;;4.47;1.88;;;;;;;;;;4948424;28;20047;-70
2022/09/19 15:01:27;;;;;;;2.97;1.55;;;;;;;;;;4947005;28;20047;-70
2022/09/19 15:03:58;;;;;;;10.20;2.08;;;;;;;;;;4963641;28;20039;-67
2022/09/19 15:06:35;;;;;;;4.57;1.65;;;;;;;;;;4950289;28;20091;-67
2022/09/19 15:09:03;;;;;;;7.82;2.40;;;;;;;;;;4949824;28;20051;-67
2022/09/19 15:11:29;;;;;;;8.52;1.75;;;;;;;;;;4951717;28;20051;-64
2022/09/19 15:13:56;;;;;;;6.65;1.92;;;;;;;;;;4943979;28;20054;-64
2022/09/19 15:16:23;;;;;;;5.70;2.00;;;;;;;;;;4948870;28;20051;-68
2022/09/19 15:18:56;;;;;;;5.47;2.00;;;;;;;;;;4946779;28;20047;-66
2022/09/19 15:21:27;;;;;;;5.57;1.85;;;;;;;;;;4948944;28;20055;-64
2022/09/19 15:23:58;;;;;;;6.57;1.50;;;;;;;;;;4949453;28;20051;-71
2022/09/19 15:26:27;;;;;;;8.48;2.20;;;;;;;;;;4946578;28;20457;-64
2022/09/19 15:28:55;;;;;;;6.85;2.47;;;;;;;;;;4946119;28;20051;-67
2022/09/19 15:31:24;;;;;;;4.85;2.00;;;;;;;;;;4941903;28;20059;-68
2022/09/19 15:34:01;;;;;;;5.10;1.58;;;;;;;;;;4942352;28;20382;-64
2022/09/19 15:36:28;;;;;;;5.03;2.05;;;;;;;;;;4954506;28;20130;-69
2022/09/19 15:38:57;;;;;;;3.63;1.65;;;;;;;;;;4951929;28;20082;-66
2022/09/19 15:41:27;;;;;;;5.07;1.75;;;;;;;;;;4945529;28;20055;-63